F/V Fleur Des Vagues — FPEJ — position and weather

sailwx.info

Track history (hours):
 
Tides and Currents Weather Stations Pressure Air Temp Water Temp Dewpoint Dewpoint Depression Visibility Wind Speed Wind Dir Waves Ship Positions

F/V Fleur Des Vagues

Last reported at 2016-May-24 19:33 UTC. Time now 2016-May-24 19:42 UTC.
Position N 46°30' W 001°47'.

Length 16 m.

Type: Fishing. MMSI: 227893000.

Date/timePositionNaut miles runAvg speedWind from/ knotsBaromVisibWave heightAir tempDewpointWater temp
2016-May-24 19:33N 46°30' W 001°47'0 0.0
2016-May-24 18:33N 46°30' W 001°47'0 0.0
2016-May-24 17:34N 46°30' W 001°47'0 0.0
2016-May-24 16:34N 46°30' W 001°47'0 0.0
2016-May-24 15:33N 46°30' W 001°47'0 0.4
2016-May-24 14:33N 46°30' W 001°48'8 8.3
2016-May-24 13:33N 46°24' W 001°56'3 3.2
2016-May-24 12:34N 46°23' W 002°01'2 1.7
2016-May-24 11:34N 46°24' W 002°03'9 8.7
2016-May-24 10:34N 46°19' W 001°53'7 6.7
2016-May-24 09:32N 46°16' W 001°43'1 0.4
2016-May-24 07:33N 46°16' W 001°44'1 0.7
2016-May-24 05:33N 46°15' W 001°46'1 0.9
2016-May-24 04:32N 46°16' W 001°45'1 1.0
2016-May-24 03:34N 46°16' W 001°44'1 1.4
2016-May-24 02:34N 46°15' W 001°45'1 1.1
2016-May-24 01:33N 46°16' W 001°44'2 2.2
2016-May-24 00:34N 46°18' W 001°44'9 8.6
2016-May-23 23:33N 46°27' W 001°47'3 3.5
2016-May-23 22:33N 46°30' W 001°47'0 0.0
2016-May-23 21:33N 46°30' W 001°47'0 0.0
2016-May-23 20:33N 46°30' W 001°47'0 0.0
2016-May-23 19:33N 46°30' W 001°47'0 0.0
2016-May-23 18:33N 46°30' W 001°47'0 0.0
2016-May-23 17:33N 46°30' W 001°47'0 0.0
2016-May-23 16:33N 46°30' W 001°47'0 0.0
2016-May-23 15:24N 46°30' W 001°47'0 0.4
2016-May-23 14:33N 46°30' W 001°48'8 7.8
2016-May-23 13:34N 46°22' W 001°45'7 6.8
2016-May-23 12:32N 46°15' W 001°46'2 1.9
2016-May-23 11:34N 46°16' W 001°44'7 3.5
2016-May-23 09:33N 46°09' W 001°42'1 0.8
2016-May-23 08:27N 46°09' W 001°41'1 1.4
2016-May-23 07:33N 46°09' W 001°42'1 0.9
2016-May-23 06:11N 46°09' W 001°41'2 2.1
2016-May-23 05:25N 46°09' W 001°43'1 0.8
2016-May-23 04:23N 46°09' W 001°42'1 0.7
2016-May-23 03:31N 46°10' W 001°41'1 0.5
2016-May-23 01:33N 46°10' W 001°42'1 0.7
2016-May-23 00:32N 46°10' W 001°41'1 0.8
2016-May-22 23:34N 46°10' W 001°41'0 0.0
2016-May-22 22:33N 46°10' W 001°41'0 0.0
2016-May-22 21:33N 46°10' W 001°41'0 0.1
2016-May-22 20:33N 46°10' W 001°41'0 0.0
2016-May-22 19:33N 46°10' W 001°41'0 0.0
2016-May-22 18:33N 46°10' W 001°41'0 0.0
2016-May-22 17:33N 46°10' W 001°41'0 0.0
2016-May-22 16:33N 46°10' W 001°41'0 0.0
2016-May-22 15:33N 46°10' W 001°41'1 1.2
2016-May-22 14:33N 46°09' W 001°41'6 3.2
2016-May-22 12:32N 46°14' W 001°48'8 8.2
2016-May-22 11:34N 46°21' W 001°54'8 8.2
2016-May-22 10:33N 46°27' W 002°01'4 3.6
2016-May-22 09:34N 46°29' W 002°05'0 0.2
2016-May-22 08:34N 46°30' W 002°05'0 0.2
2016-May-22 07:33N 46°30' W 002°05'0 0.2
2016-May-22 06:34N 46°30' W 002°04'2 2.0
2016-May-22 05:33N 46°28' W 002°04'1 1.0
2016-May-22 04:33N 46°29' W 002°04'0 0.4
2016-May-22 03:33N 46°28' W 002°04'1 0.9
2016-May-22 02:34N 46°28' W 002°04'2 1.8
2016-May-22 01:31N 46°28' W 002°02'8 8.0
2016-May-22 00:34N 46°28' W 001°50'3 2.9
2016-May-21 23:33N 46°30' W 001°47'0 0.0
2016-May-21 22:34N 46°30' W 001°47'0 0.0
2016-May-21 21:34N 46°30' W 001°47'0 0.0
2016-May-21 20:33N 46°30' W 001°47'0 0.0
2016-May-21 19:34N 46°30' W 001°47'0 0.0
2016-May-21 18:34N 46°30' W 001°47'0 0.0
2016-May-21 17:34N 46°30' W 001°47'0 0.0
2016-May-21 16:33N 46°30' W 001°47'0 0.0
2016-May-21 15:34N 46°30' W 001°47'0 0.0
2016-May-21 14:34N 46°30' W 001°47'0 0.2
2016-May-21 13:33N 46°30' W 001°47'8 7.7
2016-May-21 12:34N 46°29' W 001°58'4 4.3
2016-May-21 11:33N 46°29' W 002°05'1 1.0
2016-May-21 10:33N 46°30' W 002°06'9 8.9
2016-May-21 09:34N 46°22' W 002°00'1 1.1
2016-May-21 08:34N 46°22' W 002°01'0 0.5
2016-May-21 07:33N 46°23' W 002°02'2 1.9
2016-May-21 06:34N 46°21' W 002°00'0 0.4
2016-May-21 05:31N 46°21' W 002°01'2 1.6
2016-May-21 04:33N 46°23' W 002°02'2 1.6
2016-May-21 03:33N 46°21' W 002°01'0 0.3
2016-May-21 02:30N 46°21' W 002°02'2 2.5
2016-May-21 01:34N 46°23' W 001°60'8 8.1
2016-May-21 00:33N 46°28' W 001°50'3 3.1
2016-May-20 23:34N 46°30' W 001°47'0 0.0
2016-May-20 22:33N 46°30' W 001°47'0 0.0
2016-May-20 21:34N 46°30' W 001°47'0 0.0
2016-May-20 20:33N 46°30' W 001°47'0 0.0
2016-May-20 19:33N 46°30' W 001°47'0 0.0
2016-May-20 18:34N 46°30' W 001°47'0 0.0
2016-May-20 17:33N 46°30' W 001°47'0 0.0
2016-May-20 16:34N 46°30' W 001°47'0 0.0
2016-May-20 15:33N 46°30' W 001°47'0 0.0
2016-May-20 14:34N 46°30' W 001°47'4 4.2
2016-May-20 13:34N 46°27' W 001°52'9 9.0
2016-May-20 12:33N 46°22' W 002°02'1 1.1
2016-May-20 11:31N 46°22' W 002°01'0 0.3
2016-May-20 10:32N 46°22' W 002°00'1 1.5
2016-May-20 09:33N 46°23' W 002°02'0 0.5
2016-May-20 08:33N 46°23' W 002°02'2 1.6
2016-May-20 07:33N 46°22' W 002°00'1 0.9
2016-May-20 06:32N 46°23' W 002°01'2 1.6
2016-May-20 05:34N 46°24' W 002°01'1 1.3
2016-May-20 04:34N 46°23' W 002°01'1 1.1
2016-May-20 03:31N 46°22' W 001°60'1 1.2
2016-May-20 02:33N 46°23' W 002°00'0 0.4
2016-May-20 01:33N 46°24' W 002°00'1 1.3
2016-May-20 00:33N 46°23' W 001°59'1 0.7
2016-May-19 23:34N 46°22' W 001°59'0 0.0
2016-May-19 22:33N 46°22' W 001°59'0 0.0
2016-May-19 21:34N 46°22' W 001°59'0 0.0
2016-May-19 20:34N 46°22' W 001°59'0 0.0
2016-May-19 14:30N 46°22' W 001°59'1 1.6
2016-May-19 13:33N 46°23' W 002°01'2 1.7
2016-May-19 12:33N 46°24' W 002°01'4 4.2
2016-May-19 11:34N 46°25' W 001°55'7 6.7
2016-May-19 10:34N 46°29' W 001°47'1 1.0
2016-May-19 09:34N 46°30' W 001°47'0 0.0
2016-May-19 08:34N 46°30' W 001°47'0 0.0
2016-May-19 07:34N 46°30' W 001°47'0 0.0
2016-May-19 06:33N 46°30' W 001°47'0 0.0
2016-May-19 05:34N 46°30' W 001°47'0 0.0
2016-May-19 04:34N 46°30' W 001°47'0 0.0
2016-May-19 03:34N 46°30' W 001°47'0 0.0
2016-May-19 02:33N 46°30' W 001°47'0 0.0
2016-May-19 01:34N 46°30' W 001°47'0 0.0
2016-May-19 00:34N 46°30' W 001°47'0 0.0
2016-May-18 23:34N 46°30' W 001°47'0 0.0
2016-May-18 22:34N 46°30' W 001°47'6 6.0
2016-May-18 21:33N 46°24' W 001°46'7 7.1
2016-May-18 20:34N 46°17' W 001°44'1 0.7
2016-May-18 19:33N 46°16' W 001°44'0 0.4
2016-May-18 18:33N 46°17' W 001°44'1 0.5
2016-May-18 17:33N 46°17' W 001°44'0 0.3
2016-May-18 16:33N 46°18' W 001°44'0 0.5
2016-May-18 15:33N 46°18' W 001°45'1 1.3
2016-May-18 14:34N 46°17' W 001°45'1 0.7
2016-May-18 13:33N 46°17' W 001°44'1 0.6
2016-May-18 12:33N 46°17' W 001°44'0 0.4
2016-May-18 11:23N 46°18' W 001°44'1 0.6
2016-May-18 10:33N 46°18' W 001°44'1 0.9
2016-May-18 09:19N 46°17' W 001°45'1 1.4
2016-May-18 08:33N 46°17' W 001°43'0 0.4
2016-May-18 07:34N 46°17' W 001°43'1 1.2
2016-May-18 06:33N 46°18' W 001°44'1 0.5
2016-May-18 05:33N 46°18' W 001°44'1 0.8
2016-May-18 04:33N 46°19' W 001°45'1 1.0
2016-May-18 03:33N 46°18' W 001°46'0 0.4
2016-May-18 02:34N 46°19' W 001°47'1 1.2
2016-May-18 01:33N 46°19' W 001°45'7 6.9
2016-May-18 00:34N 46°26' W 001°46'4 4.1
2016-May-17 23:34N 46°30' W 001°47'0 0.0
2016-May-17 22:33N 46°30' W 001°47'0 0.0
2016-May-17 21:33N 46°30' W 001°47'0 0.0
2016-May-17 20:33N 46°30' W 001°47'0 0.0
2016-May-17 19:33N 46°30' W 001°47'0 0.0
2016-May-17 18:33N 46°30' W 001°47'0 0.0
2016-May-17 17:33N 46°30' W 001°47'0 0.0
2016-May-17 16:33N 46°30' W 001°47'0 0.0
2016-May-17 15:33N 46°30' W 001°47'0 0.0
2016-May-17 14:33N 46°30' W 001°47'0 0.0
2016-May-17 13:34N 46°30' W 001°47'0 0.0
2016-May-17 12:33N 46°30' W 001°47'7 7.0
2016-May-17 11:34N 46°23' W 001°46'6 5.7
2016-May-17 10:34N 46°17' W 001°44'2 1.7
2016-May-17 09:33N 46°18' W 001°46'4 3.6
2016-May-17 08:34N 46°21' W 001°50'1 1.1
2016-May-17 07:33N 46°20' W 001°50'1 1.5
2016-May-17 06:34N 46°21' W 001°52'2 1.5
2016-May-17 05:34N 46°19' W 001°51'2 1.6
2016-May-17 04:33N 46°21' W 001°52'1 1.2
2016-May-17 03:34N 46°20' W 001°50'0 0.2
2016-May-17 02:33N 46°20' W 001°50'1 0.6
2016-May-17 01:34N 46°20' W 001°49'7 7.1
2016-May-17 00:33N 46°27' W 001°48'3 3.0
2016-May-16 23:34N 46°30' W 001°47'0 0.0
2016-May-16 22:34N 46°30' W 001°47'0 0.0
2016-May-16 21:33N 46°30' W 001°47'0 0.0
2016-May-16 20:34N 46°30' W 001°47'0 0.0
2016-May-16 19:34N 46°30' W 001°47'0 0.0
2016-May-16 18:34N 46°30' W 001°47'0 0.0
2016-May-16 17:34N 46°30' W 001°47'0 0.0
2016-May-16 16:34N 46°30' W 001°47'0 0.0
2016-May-16 15:33N 46°30' W 001°47'0 0.0
2016-May-16 14:33N 46°30' W 001°47'0 0.0
2016-May-16 13:34N 46°30' W 001°47'0 0.0
2016-May-16 12:34N 46°30' W 001°47'0 0.0
2016-May-16 11:33N 46°30' W 001°47'2 1.6
2016-May-16 10:33N 46°28' W 001°47'8 8.4
2016-May-16 09:33N 46°20' W 001°49'1 1.2
2016-May-16 08:34N 46°20' W 001°51'5 4.8
2016-May-16 07:33N 46°24' W 001°56'8 8.2
2016-May-16 06:33N 46°30' W 002°04'0 0.5
2016-May-16 05:33N 46°29' W 002°04'0 0.4
2016-May-16 04:33N 46°30' W 002°05'0 0.1
2016-May-16 03:34N 46°30' W 002°05'1 0.7
2016-May-16 02:34N 46°29' W 002°04'0 0.1
2016-May-16 01:34N 46°29' W 002°05'0 0.2
2016-May-16 00:34N 46°29' W 002°05'0 0.2
2016-May-15 23:33N 46°29' W 002°05'0 0.0
2016-May-15 22:33N 46°29' W 002°04'0 0.0
2016-May-15 21:34N 46°29' W 002°04'0 0.0
2016-May-15 20:33N 46°29' W 002°04'0 0.0
2016-May-15 19:34N 46°29' W 002°04'0 0.0
2016-May-15 18:33N 46°29' W 002°04'0 0.0
2016-May-15 17:34N 46°29' W 002°04'0 0.0
2016-May-15 16:34N 46°29' W 002°04'0 0.0
2016-May-15 15:34N 46°29' W 002°04'0 0.1
2016-May-15 14:34N 46°29' W 002°04'0 0.0
2016-May-15 13:34N 46°29' W 002°04'0 0.1
2016-May-15 12:33N 46°29' W 002°05'0 0.4
2016-May-15 11:34N 46°29' W 002°05'0 0.4
2016-May-15 10:33N 46°30' W 002°04'0 0.1
2016-May-15 09:34N 46°30' W 002°04'0 0.1
2016-May-15 08:33N 46°30' W 002°05'0 0.5
2016-May-15 07:33N 46°29' W 002°04'0 0.4
2016-May-15 06:33N 46°29' W 002°05'4 3.9
2016-May-15 05:33N 46°32' W 002°00'3 2.8
2016-May-15 04:32N 46°34' W 002°03'1 0.5
2016-May-15 03:33N 46°34' W 002°02'0 0.5
2016-May-15 02:33N 46°34' W 002°02'4 3.8
2016-May-15 01:34N 46°31' W 001°57'7 6.8
2016-May-15 00:34N 46°30' W 001°48'0 0.4
2016-May-14 23:33N 46°30' W 001°47'0 0.0
2016-May-14 22:34N 46°30' W 001°47'0 0.0
2016-May-14 21:34N 46°30' W 001°47'0 0.0
2016-May-14 20:33N 46°30' W 001°47'0 0.0
2016-May-14 19:34N 46°30' W 001°47'  
Track history (hours):
 
Tides and Currents Weather Stations Pressure Air Temp Water Temp Dewpoint Dewpoint Depression Visibility Wind Speed Wind Dir Waves Ship Positions

F/V Fleur Des Vagues

Last reported at 2016-May-24 19:33 UTC. Time now 2016-May-24 19:42 UTC.
Position N 46°30' W 001°47'.

Length 16 m.

Type: Fishing. MMSI: 227893000.

Date/timePositionNaut miles runAvg speedWind from/ knotsBaromVisibWave heightAir tempDewpointWater temp
2016-May-24 19:33N 46°30' W 001°47'0 0.0
2016-May-24 18:33N 46°30' W 001°47'0 0.0
2016-May-24 17:34N 46°30' W 001°47'0 0.0
2016-May-24 16:34N 46°30' W 001°47'0 0.0
2016-May-24 15:33N 46°30' W 001°47'0 0.4
2016-May-24 14:33N 46°30' W 001°48'8 8.3
2016-May-24 13:33N 46°24' W 001°56'3 3.2
2016-May-24 12:34N 46°23' W 002°01'2 1.7
2016-May-24 11:34N 46°24' W 002°03'9 8.7
2016-May-24 10:34N 46°19' W 001°53'7 6.7
2016-May-24 09:32N 46°16' W 001°43'1 0.4
2016-May-24 07:33N 46°16' W 001°44'1 0.7
2016-May-24 05:33N 46°15' W 001°46'1 0.9
2016-May-24 04:32N 46°16' W 001°45'1 1.0
2016-May-24 03:34N 46°16' W 001°44'1 1.4
2016-May-24 02:34N 46°15' W 001°45'1 1.1
2016-May-24 01:33N 46°16' W 001°44'2 2.2
2016-May-24 00:34N 46°18' W 001°44'9 8.6
2016-May-23 23:33N 46°27' W 001°47'3 3.5
2016-May-23 22:33N 46°30' W 001°47'0 0.0
2016-May-23 21:33N 46°30' W 001°47'0 0.0
2016-May-23 20:33N 46°30' W 001°47'0 0.0
2016-May-23 19:33N 46°30' W 001°47'0 0.0
2016-May-23 18:33N 46°30' W 001°47'0 0.0
2016-May-23 17:33N 46°30' W 001°47'0 0.0
2016-May-23 16:33N 46°30' W 001°47'0 0.0
2016-May-23 15:24N 46°30' W 001°47'0 0.4
2016-May-23 14:33N 46°30' W 001°48'8 7.8
2016-May-23 13:34N 46°22' W 001°45'7 6.8
2016-May-23 12:32N 46°15' W 001°46'2 1.9
2016-May-23 11:34N 46°16' W 001°44'7 3.5
2016-May-23 09:33N 46°09' W 001°42'1 0.8
2016-May-23 08:27N 46°09' W 001°41'1 1.4
2016-May-23 07:33N 46°09' W 001°42'1 0.9
2016-May-23 06:11N 46°09' W 001°41'2 2.1
2016-May-23 05:25N 46°09' W 001°43'1 0.8
2016-May-23 04:23N 46°09' W 001°42'1 0.7
2016-May-23 03:31N 46°10' W 001°41'1 0.5
2016-May-23 01:33N 46°10' W 001°42'1 0.7
2016-May-23 00:32N 46°10' W 001°41'1 0.8
2016-May-22 23:34N 46°10' W 001°41'0 0.0
2016-May-22 22:33N 46°10' W 001°41'0 0.0
2016-May-22 21:33N 46°10' W 001°41'0 0.1
2016-May-22 20:33N 46°10' W 001°41'0 0.0
2016-May-22 19:33N 46°10' W 001°41'0 0.0
2016-May-22 18:33N 46°10' W 001°41'0 0.0
2016-May-22 17:33N 46°10' W 001°41'0 0.0
2016-May-22 16:33N 46°10' W 001°41'0 0.0
2016-May-22 15:33N 46°10' W 001°41'1 1.2
2016-May-22 14:33N 46°09' W 001°41'6 3.2
2016-May-22 12:32N 46°14' W 001°48'8 8.2
2016-May-22 11:34N 46°21' W 001°54'8 8.2
2016-May-22 10:33N 46°27' W 002°01'4 3.6
2016-May-22 09:34N 46°29' W 002°05'0 0.2
2016-May-22 08:34N 46°30' W 002°05'0 0.2
2016-May-22 07:33N 46°30' W 002°05'0 0.2
2016-May-22 06:34N 46°30' W 002°04'2 2.0
2016-May-22 05:33N 46°28' W 002°04'1 1.0
2016-May-22 04:33N 46°29' W 002°04'0 0.4
2016-May-22 03:33N 46°28' W 002°04'1 0.9
2016-May-22 02:34N 46°28' W 002°04'2 1.8
2016-May-22 01:31N 46°28' W 002°02'8 8.0
2016-May-22 00:34N 46°28' W 001°50'3 2.9
2016-May-21 23:33N 46°30' W 001°47'0 0.0
2016-May-21 22:34N 46°30' W 001°47'0 0.0
2016-May-21 21:34N 46°30' W 001°47'0 0.0
2016-May-21 20:33N 46°30' W 001°47'0 0.0
2016-May-21 19:34N 46°30' W 001°47'0 0.0
2016-May-21 18:34N 46°30' W 001°47'0 0.0
2016-May-21 17:34N 46°30' W 001°47'0 0.0
2016-May-21 16:33N 46°30' W 001°47'0 0.0
2016-May-21 15:34N 46°30' W 001°47'0 0.0
2016-May-21 14:34N 46°30' W 001°47'0 0.2
2016-May-21 13:33N 46°30' W 001°47'8 7.7
2016-May-21 12:34N 46°29' W 001°58'4 4.3
2016-May-21 11:33N 46°29' W 002°05'1 1.0
2016-May-21 10:33N 46°30' W 002°06'9 8.9
2016-May-21 09:34N 46°22' W 002°00'1 1.1
2016-May-21 08:34N 46°22' W 002°01'0 0.5
2016-May-21 07:33N 46°23' W 002°02'2 1.9
2016-May-21 06:34N 46°21' W 002°00'0 0.4
2016-May-21 05:31N 46°21' W 002°01'2 1.6
2016-May-21 04:33N 46°23' W 002°02'2 1.6
2016-May-21 03:33N 46°21' W 002°01'0 0.3
2016-May-21 02:30N 46°21' W 002°02'2 2.5
2016-May-21 01:34N 46°23' W 001°60'8 8.1
2016-May-21 00:33N 46°28' W 001°50'3 3.1
2016-May-20 23:34N 46°30' W 001°47'0 0.0
2016-May-20 22:33N 46°30' W 001°47'0 0.0
2016-May-20 21:34N 46°30' W 001°47'0 0.0
2016-May-20 20:33N 46°30' W 001°47'0 0.0
2016-May-20 19:33N 46°30' W 001°47'0 0.0
2016-May-20 18:34N 46°30' W 001°47'0 0.0
2016-May-20 17:33N 46°30' W 001°47'0 0.0
2016-May-20 16:34N 46°30' W 001°47'0 0.0
2016-May-20 15:33N 46°30' W 001°47'0 0.0
2016-May-20 14:34N 46°30' W 001°47'4 4.2
2016-May-20 13:34N 46°27' W 001°52'9 9.0
2016-May-20 12:33N 46°22' W 002°02'1 1.1
2016-May-20 11:31N 46°22' W 002°01'0 0.3
2016-May-20 10:32N 46°22' W 002°00'1 1.5
2016-May-20 09:33N 46°23' W 002°02'0 0.5
2016-May-20 08:33N 46°23' W 002°02'2 1.6
2016-May-20 07:33N 46°22' W 002°00'1 0.9
2016-May-20 06:32N 46°23' W 002°01'2 1.6
2016-May-20 05:34N 46°24' W 002°01'1 1.3
2016-May-20 04:34N 46°23' W 002°01'1 1.1
2016-May-20 03:31N 46°22' W 001°60'1 1.2
2016-May-20 02:33N 46°23' W 002°00'0 0.4
2016-May-20 01:33N 46°24' W 002°00'1 1.3
2016-May-20 00:33N 46°23' W 001°59'1 0.7
2016-May-19 23:34N 46°22' W 001°59'0 0.0
2016-May-19 22:33N 46°22' W 001°59'0 0.0
2016-May-19 21:34N 46°22' W 001°59'0 0.0
2016-May-19 20:34N 46°22' W 001°59'0 0.0
2016-May-19 14:30N 46°22' W 001°59'1 1.6
2016-May-19 13:33N 46°23' W 002°01'2 1.7
2016-May-19 12:33N 46°24' W 002°01'4 4.2
2016-May-19 11:34N 46°25' W 001°55'7 6.7
2016-May-19 10:34N 46°29' W 001°47'1 1.0
2016-May-19 09:34N 46°30' W 001°47'0 0.0
2016-May-19 08:34N 46°30' W 001°47'0 0.0
2016-May-19 07:34N 46°30' W 001°47'0 0.0
2016-May-19 06:33N 46°30' W 001°47'0 0.0
2016-May-19 05:34N 46°30' W 001°47'0 0.0
2016-May-19 04:34N 46°30' W 001°47'0 0.0
2016-May-19 03:34N 46°30' W 001°47'0 0.0
2016-May-19 02:33N 46°30' W 001°47'0 0.0
2016-May-19 01:34N 46°30' W 001°47'0 0.0
2016-May-19 00:34N 46°30' W 001°47'0 0.0
2016-May-18 23:34N 46°30' W 001°47'0 0.0
2016-May-18 22:34N 46°30' W 001°47'6 6.0
2016-May-18 21:33N 46°24' W 001°46'7 7.1
2016-May-18 20:34N 46°17' W 001°44'1 0.7
2016-May-18 19:33N 46°16' W 001°44'0 0.4
2016-May-18 18:33N 46°17' W 001°44'1 0.5
2016-May-18 17:33N 46°17' W 001°44'0 0.3
2016-May-18 16:33N 46°18' W 001°44'0 0.5
2016-May-18 15:33N 46°18' W 001°45'1 1.3
2016-May-18 14:34N 46°17' W 001°45'1 0.7
2016-May-18 13:33N 46°17' W 001°44'1 0.6
2016-May-18 12:33N 46°17' W 001°44'0 0.4
2016-May-18 11:23N 46°18' W 001°44'1 0.6
2016-May-18 10:33N 46°18' W 001°44'1 0.9
2016-May-18 09:19N 46°17' W 001°45'1 1.4
2016-May-18 08:33N 46°17' W 001°43'0 0.4
2016-May-18 07:34N 46°17' W 001°43'1 1.2
2016-May-18 06:33N 46°18' W 001°44'1 0.5
2016-May-18 05:33N 46°18' W 001°44'1 0.8
2016-May-18 04:33N 46°19' W 001°45'1 1.0
2016-May-18 03:33N 46°18' W 001°46'0 0.4
2016-May-18 02:34N 46°19' W 001°47'1 1.2
2016-May-18 01:33N 46°19' W 001°45'7 6.9
2016-May-18 00:34N 46°26' W 001°46'4 4.1
2016-May-17 23:34N 46°30' W 001°47'0 0.0
2016-May-17 22:33N 46°30' W 001°47'0 0.0
2016-May-17 21:33N 46°30' W 001°47'0 0.0
2016-May-17 20:33N 46°30' W 001°47'0 0.0
2016-May-17 19:33N 46°30' W 001°47'0 0.0
2016-May-17 18:33N 46°30' W 001°47'0 0.0
2016-May-17 17:33N 46°30' W 001°47'0 0.0
2016-May-17 16:33N 46°30' W 001°47'0 0.0
2016-May-17 15:33N 46°30' W 001°47'0 0.0
2016-May-17 14:33N 46°30' W 001°47'0 0.0
2016-May-17 13:34N 46°30' W 001°47'0 0.0
2016-May-17 12:33N 46°30' W 001°47'7 7.0
2016-May-17 11:34N 46°23' W 001°46'6 5.7
2016-May-17 10:34N 46°17' W 001°44'2 1.7
2016-May-17 09:33N 46°18' W 001°46'4 3.6
2016-May-17 08:34N 46°21' W 001°50'1 1.1
2016-May-17 07:33N 46°20' W 001°50'1 1.5
2016-May-17 06:34N 46°21' W 001°52'2 1.5
2016-May-17 05:34N 46°19' W 001°51'2 1.6
2016-May-17 04:33N 46°21' W 001°52'1 1.2
2016-May-17 03:34N 46°20' W 001°50'0 0.2
2016-May-17 02:33N 46°20' W 001°50'1 0.6
2016-May-17 01:34N 46°20' W 001°49'7 7.1
2016-May-17 00:33N 46°27' W 001°48'3 3.0
2016-May-16 23:34N 46°30' W 001°47'0 0.0
2016-May-16 22:34N 46°30' W 001°47'0 0.0
2016-May-16 21:33N 46°30' W 001°47'0 0.0
2016-May-16 20:34N 46°30' W 001°47'0 0.0
2016-May-16 19:34N 46°30' W 001°47'0 0.0
2016-May-16 18:34N 46°30' W 001°47'0 0.0
2016-May-16 17:34N 46°30' W 001°47'0 0.0
2016-May-16 16:34N 46°30' W 001°47'0 0.0
2016-May-16 15:33N 46°30' W 001°47'0 0.0
2016-May-16 14:33N 46°30' W 001°47'0 0.0
2016-May-16 13:34N 46°30' W 001°47'0 0.0
2016-May-16 12:34N 46°30' W 001°47'0 0.0
2016-May-16 11:33N 46°30' W 001°47'2 1.6
2016-May-16 10:33N 46°28' W 001°47'8 8.4
2016-May-16 09:33N 46°20' W 001°49'1 1.2
2016-May-16 08:34N 46°20' W 001°51'5 4.8
2016-May-16 07:33N 46°24' W 001°56'8 8.2
2016-May-16 06:33N 46°30' W 002°04'0 0.5
2016-May-16 05:33N 46°29' W 002°04'0 0.4
2016-May-16 04:33N 46°30' W 002°05'0 0.1
2016-May-16 03:34N 46°30' W 002°05'1 0.7
2016-May-16 02:34N 46°29' W 002°04'0 0.1
2016-May-16 01:34N 46°29' W 002°05'0 0.2
2016-May-16 00:34N 46°29' W 002°05'0 0.2
2016-May-15 23:33N 46°29' W 002°05'0 0.0
2016-May-15 22:33N 46°29' W 002°04'0 0.0
2016-May-15 21:34N 46°29' W 002°04'0 0.0
2016-May-15 20:33N 46°29' W 002°04'0 0.0
2016-May-15 19:34N 46°29' W 002°04'0 0.0
2016-May-15 18:33N 46°29' W 002°04'0 0.0
2016-May-15 17:34N 46°29' W 002°04'0 0.0
2016-May-15 16:34N 46°29' W 002°04'0 0.0
2016-May-15 15:34N 46°29' W 002°04'0 0.1
2016-May-15 14:34N 46°29' W 002°04'0 0.0
2016-May-15 13:34N 46°29' W 002°04'0 0.1
2016-May-15 12:33N 46°29' W 002°05'0 0.4
2016-May-15 11:34N 46°29' W 002°05'0 0.4
2016-May-15 10:33N 46°30' W 002°04'0 0.1
2016-May-15 09:34N 46°30' W 002°04'0 0.1
2016-May-15 08:33N 46°30' W 002°05'0 0.5
2016-May-15 07:33N 46°29' W 002°04'0 0.4
2016-May-15 06:33N 46°29' W 002°05'4 3.9
2016-May-15 05:33N 46°32' W 002°00'3 2.8
2016-May-15 04:32N 46°34' W 002°03'1 0.5
2016-May-15 03:33N 46°34' W 002°02'0 0.5
2016-May-15 02:33N 46°34' W 002°02'4 3.8
2016-May-15 01:34N 46°31' W 001°57'7 6.8
2016-May-15 00:34N 46°30' W 001°48'0 0.4
2016-May-14 23:33N 46°30' W 001°47'0 0.0
2016-May-14 22:34N 46°30' W 001°47'0 0.0
2016-May-14 21:34N 46°30' W 001°47'0 0.0
2016-May-14 20:33N 46°30' W 001°47'0 0.0
2016-May-14 19:34N 46°30' W 001°47'  

Dump ship's entire track history